Impacts METAR Board
IDs:

KPIT - Pittsburgh Intl, PA, US

Updated at: 1600 UTC 24 Sep 2018
Potential Impact None Slight Moderate High
Time 24/04Z 24/05Z 24/06Z 24/07Z 24/08Z 24/09Z 24/10Z 24/11Z 24/12Z 24/13Z 24/14Z 24/15Z 24/16Z
Temp58 57 56 57 56 56 56 57 58 59 62 65 67
Dewpt57 56 56 56 56 56 56 56 56 57 58 59 59
Altim30.21 30.21 30.20 30.20 30.20 30.20 30.21 30.22 30.24 30.25 30.26 30.26 30.25
VIS10 10 10 10 10 10 10 10 10 10 10 10 10
CIG55 55 60 130 150 150 250 150 150 150 150 50 41
CoverBKNBKNBKNBKNBKNBKNBKNBKNBKNBKNBKNBKNOVC
FltCatVFRVFRVFRVFRVFRVFRVFRVFRVFRVFRVFRVFRVFR
WX--------------------------
WDir6080100110909010010090100120130130
WSpd6 6 6 6 6 9 8 7 10 9 9 11 11
WGst-- -- -- -- -- -- -- -- -- -- -- -- --
Raw hourly METARs
KPIT 240351Z 06006KT 10SM SCT025 BKN055 14/14 A3021 RMK AO2 SLP235 T01440139 $
KPIT 240451Z 08006KT 10SM FEW025 BKN055 14/13 A3021 RMK AO2 SLP234 T01390133 401940111 $
KPIT 240551Z 10006KT 10SM BKN060 BKN150 13/13 A3020 RMK AO2 SLP231 T01330133 10183 20133 50000 $
KPIT 240651Z 11006KT 10SM SCT070 BKN130 14/13 A3020 RMK AO2 SLP231 T01390133 $
KPIT 240751Z 09006KT 10SM FEW070 BKN150 13/13 A3020 RMK AO2 SLP231 T01330133 $
KPIT 240851Z 09009KT 10SM SCT070 BKN150 13/13 A3020 RMK AO2 SLP231 T01330133 53000 $
KPIT 240951Z 10008KT 10SM FEW070 SCT150 BKN250 13/13 A3021 RMK AO2 SLP236 T01330133 $
KPIT 241051Z 10007KT 10SM FEW065 BKN150 BKN250 14/13 A3022 RMK AO2 SLP240 T01390133 $
KPIT 241151Z 09010KT 10SM SCT040 BKN150 BKN250 14/13 A3024 RMK AO2 SLP245 T01440133 10144 20133 53013 $
KPIT 241251Z 10009KT 10SM SCT040 BKN150 BKN250 15/14 A3025 RMK AO2 SLP249 T01500139 $
KPIT 241351Z 12009KT 10SM FEW035 SCT050 BKN150 BKN250 17/14 A3026 RMK AO2 SLP251 T01670144
KPIT 241451Z 13011KT 10SM FEW035 BKN050 BKN240 18/15 A3026 RMK AO2 SLP252 T01830150 51007
KPIT 241551Z 13011KT 10SM FEW021 BKN041 OVC220 19/15 A3025 RMK AO2 SLP249 T01940150



Page loaded:  16:59 UTC  |   09:59 AM Pacific  |   10:59 AM Mountain  |   11:59 AM Central  |   12:59 PM Eastern

 

ADVISORIES

FORECASTS

FORECASTS

OBSERVATIONS

USER TOOLS

ABOUT US